sensor_id;sensor_type;location;lat;lon;timestamp;P1;durP1;ratioP1;P2;durP2;ratioP2
65613;SDS011;52283;49.292;10.572;2023-05-07T00:01:00;7.95;;;4.00;;
65613;SDS011;52283;49.292;10.572;2023-05-07T00:03:28;3.90;;;3.28;;
65613;SDS011;52283;49.292;10.572;2023-05-07T00:05:55;11.95;;;3.50;;
65613;SDS011;52283;49.292;10.572;2023-05-07T00:08:21;3.22;;;2.70;;
65613;SDS011;52283;49.292;10.572;2023-05-07T00:10:48;3.08;;;2.65;;
65613;SDS011;52283;49.292;10.572;2023-05-07T00:13:14;4.82;;;3.53;;
65613;SDS011;52283;49.292;10.572;2023-05-07T00:15:41;5.32;;;4.00;;
65613;SDS011;52283;49.292;10.572;2023-05-07T00:18:07;4.03;;;3.55;;
65613;SDS011;52283;49.292;10.572;2023-05-07T00:20:35;4.95;;;4.15;;
65613;SDS011;52283;49.292;10.572;2023-05-07T00:23:02;5.90;;;3.15;;
65613;SDS011;52283;49.292;10.572;2023-05-07T00:25:28;4.13;;;2.35;;
65613;SDS011;52283;49.292;10.572;2023-05-07T00:27:55;3.42;;;2.85;;
65613;SDS011;52283;49.292;10.572;2023-05-07T00:30:22;2.78;;;2.58;;
65613;SDS011;52283;49.292;10.572;2023-05-07T00:32:49;4.50;;;3.08;;
65613;SDS011;52283;49.292;10.572;2023-05-07T00:35:15;3.80;;;2.95;;
65613;SDS011;52283;49.292;10.572;2023-05-07T00:37:43;4.05;;;2.90;;
65613;SDS011;52283;49.292;10.572;2023-05-07T00:40:10;5.40;;;2.92;;
65613;SDS011;52283;49.292;10.572;2023-05-07T00:42:36;6.97;;;2.95;;
65613;SDS011;52283;49.292;10.572;2023-05-07T00:45:04;5.70;;;3.35;;
65613;SDS011;52283;49.292;10.572;2023-05-07T00:47:32;4.13;;;3.10;;
65613;SDS011;52283;49.292;10.572;2023-05-07T00:49:59;4.72;;;2.90;;
65613;SDS011;52283;49.292;10.572;2023-05-07T00:52:26;4.55;;;3.13;;
65613;SDS011;52283;49.292;10.572;2023-05-07T00:54:54;5.38;;;3.17;;
65613;SDS011;52283;49.292;10.572;2023-05-07T00:57:21;6.07;;;3.45;;
65613;SDS011;52283;49.292;10.572;2023-05-07T00:59:50;3.47;;;2.97;;
65613;SDS011;52283;49.292;10.572;2023-05-07T01:02:18;5.13;;;3.05;;
65613;SDS011;52283;49.292;10.572;2023-05-07T01:04:44;3.05;;;2.60;;
65613;SDS011;52283;49.292;10.572;2023-05-07T01:07:11;3.80;;;3.40;;
65613;SDS011;52283;49.292;10.572;2023-05-07T01:09:37;3.55;;;3.08;;
65613;SDS011;52283;49.292;10.572;2023-05-07T01:12:06;4.28;;;2.95;;
65613;SDS011;52283;49.292;10.572;2023-05-07T01:14:33;3.40;;;2.78;;
65613;SDS011;52283;49.292;10.572;2023-05-07T01:17:00;2.90;;;2.60;;
65613;SDS011;52283;49.292;10.572;2023-05-07T01:19:28;6.80;;;2.80;;
65613;SDS011;52283;49.292;10.572;2023-05-07T01:21:56;5.07;;;2.83;;
65613;SDS011;52283;49.292;10.572;2023-05-07T01:24:29;3.40;;;3.10;;
65613;SDS011;52283;49.292;10.572;2023-05-07T01:26:56;4.15;;;2.72;;
65613;SDS011;52283;49.292;10.572;2023-05-07T01:29:23;4.15;;;2.60;;
65613;SDS011;52283;49.292;10.572;2023-05-07T01:31:49;4.50;;;3.10;;
65613;SDS011;52283;49.292;10.572;2023-05-07T01:34:17;4.82;;;3.25;;
65613;SDS011;52283;49.292;10.572;2023-05-07T01:36:46;6.35;;;4.03;;
65613;SDS011;52283;49.292;10.572;2023-05-07T01:39:13;6.43;;;4.57;;
65613;SDS011;52283;49.292;10.572;2023-05-07T01:41:43;6.30;;;3.60;;
65613;SDS011;52283;49.292;10.572;2023-05-07T01:44:10;6.63;;;4.07;;
65613;SDS011;52283;49.292;10.572;2023-05-07T01:46:39;5.10;;;3.10;;
65613;SDS011;52283;49.292;10.572;2023-05-07T01:49:06;3.67;;;3.05;;
65613;SDS011;52283;49.292;10.572;2023-05-07T01:51:32;4.72;;;2.67;;
65613;SDS011;52283;49.292;10.572;2023-05-07T01:54:00;3.60;;;3.30;;
65613;SDS011;52283;49.292;10.572;2023-05-07T01:56:26;4.32;;;3.50;;
65613;SDS011;52283;49.292;10.572;2023-05-07T01:58:54;4.15;;;3.47;;
65613;SDS011;52283;49.292;10.572;2023-05-07T02:01:20;5.80;;;4.32;;
65613;SDS011;52283;49.292;10.572;2023-05-07T02:03:47;6.72;;;3.88;;
65613;SDS011;52283;49.292;10.572;2023-05-07T02:06:13;3.83;;;3.53;;
65613;SDS011;52283;49.292;10.572;2023-05-07T02:08:40;4.43;;;3.25;;
65613;SDS011;52283;49.292;10.572;2023-05-07T02:11:06;4.05;;;2.90;;
65613;SDS011;52283;49.292;10.572;2023-05-07T02:13:33;4.28;;;3.50;;
65613;SDS011;52283;49.292;10.572;2023-05-07T02:16:02;3.83;;;3.30;;
65613;SDS011;52283;49.292;10.572;2023-05-07T02:18:29;3.88;;;3.45;;
65613;SDS011;52283;49.292;10.572;2023-05-07T02:20:56;5.75;;;3.38;;
65613;SDS011;52283;49.292;10.572;2023-05-07T02:23:23;4.45;;;3.30;;
65613;SDS011;52283;49.292;10.572;2023-05-07T02:25:49;5.63;;;3.15;;
65613;SDS011;52283;49.292;10.572;2023-05-07T02:28:16;4.30;;;2.58;;
65613;SDS011;52283;49.292;10.572;2023-05-07T02:30:42;4.05;;;3.13;;
65613;SDS011;52283;49.292;10.572;2023-05-07T02:33:10;5.30;;;3.17;;
65613;SDS011;52283;49.292;10.572;2023-05-07T02:35:37;3.92;;;3.42;;
65613;SDS011;52283;49.292;10.572;2023-05-07T02:38:03;5.55;;;3.05;;
65613;SDS011;52283;49.292;10.572;2023-05-07T02:40:30;3.50;;;3.17;;
65613;SDS011;52283;49.292;10.572;2023-05-07T02:42:58;3.65;;;3.25;;
65613;SDS011;52283;49.292;10.572;2023-05-07T02:45:25;3.15;;;2.88;;
65613;SDS011;52283;49.292;10.572;2023-05-07T02:47:51;4.78;;;3.35;;
65613;SDS011;52283;49.292;10.572;2023-05-07T02:50:19;5.35;;;3.20;;
65613;SDS011;52283;49.292;10.572;2023-05-07T02:52:46;5.30;;;2.85;;
65613;SDS011;52283;49.292;10.572;2023-05-07T02:55:12;3.90;;;2.92;;
65613;SDS011;52283;49.292;10.572;2023-05-07T02:57:40;3.08;;;2.78;;
65613;SDS011;52283;49.292;10.572;2023-05-07T03:00:10;4.95;;;2.88;;
65613;SDS011;52283;49.292;10.572;2023-05-07T03:02:37;3.40;;;3.08;;
65613;SDS011;52283;49.292;10.572;2023-05-07T03:05:04;4.97;;;3.10;;
65613;SDS011;52283;49.292;10.572;2023-05-07T03:07:33;4.72;;;2.53;;
65613;SDS011;52283;49.292;10.572;2023-05-07T03:09:59;3.90;;;2.92;;
65613;SDS011;52283;49.292;10.572;2023-05-07T03:12:26;5.32;;;3.75;;
65613;SDS011;52283;49.292;10.572;2023-05-07T03:14:52;4.97;;;3.13;;
65613;SDS011;52283;49.292;10.572;2023-05-07T03:17:18;3.30;;;3.00;;
65613;SDS011;52283;49.292;10.572;2023-05-07T03:19:46;4.82;;;3.25;;
65613;SDS011;52283;49.292;10.572;2023-05-07T03:22:12;3.17;;;2.90;;
65613;SDS011;52283;49.292;10.572;2023-05-07T03:24:40;3.20;;;2.90;;
65613;SDS011;52283;49.292;10.572;2023-05-07T03:27:06;3.42;;;3.13;;
65613;SDS011;52283;49.292;10.572;2023-05-07T03:29:33;7.40;;;3.55;;
65613;SDS011;52283;49.292;10.572;2023-05-07T03:32:00;3.42;;;3.13;;
65613;SDS011;52283;49.292;10.572;2023-05-07T03:34:26;8.48;;;3.20;;
65613;SDS011;52283;49.292;10.572;2023-05-07T03:36:52;3.00;;;2.80;;
65613;SDS011;52283;49.292;10.572;2023-05-07T03:39:19;4.45;;;2.90;;
65613;SDS011;52283;49.292;10.572;2023-05-07T03:41:47;5.10;;;3.20;;
65613;SDS011;52283;49.292;10.572;2023-05-07T03:44:13;4.85;;;2.80;;
65613;SDS011;52283;49.292;10.572;2023-05-07T03:46:40;4.97;;;3.72;;
65613;SDS011;52283;49.292;10.572;2023-05-07T03:49:06;4.85;;;3.05;;
65613;SDS011;52283;49.292;10.572;2023-05-07T03:51:33;4.72;;;3.60;;
65613;SDS011;52283;49.292;10.572;2023-05-07T03:54:01;3.45;;;2.75;;
65613;SDS011;52283;49.292;10.572;2023-05-07T03:56:27;5.32;;;3.20;;
65613;SDS011;52283;49.292;10.572;2023-05-07T03:58:55;2.80;;;2.58;;
65613;SDS011;52283;49.292;10.572;2023-05-07T04:01:22;3.72;;;2.63;;
65613;SDS011;52283;49.292;10.572;2023-05-07T04:03:48;3.28;;;2.95;;
65613;SDS011;52283;49.292;10.572;2023-05-07T04:06:15;7.25;;;3.25;;
65613;SDS011;52283;49.292;10.572;2023-05-07T04:08:42;4.00;;;2.90;;
65613;SDS011;52283;49.292;10.572;2023-05-07T04:11:08;4.30;;;2.90;;
65613;SDS011;52283;49.292;10.572;2023-05-07T04:13:35;3.05;;;2.75;;
65613;SDS011;52283;49.292;10.572;2023-05-07T04:16:03;3.08;;;2.67;;
65613;SDS011;52283;49.292;10.572;2023-05-07T04:18:30;4.38;;;2.83;;
65613;SDS011;52283;49.292;10.572;2023-05-07T04:20:57;4.15;;;3.35;;
65613;SDS011;52283;49.292;10.572;2023-05-07T04:23:23;3.83;;;3.15;;
65613;SDS011;52283;49.292;10.572;2023-05-07T04:25:50;5.72;;;3.10;;
65613;SDS011;52283;49.292;10.572;2023-05-07T04:28:17;7.57;;;3.47;;
65613;SDS011;52283;49.292;10.572;2023-05-07T04:30:44;7.22;;;3.03;;
65613;SDS011;52283;49.292;10.572;2023-05-07T04:33:11;4.85;;;3.38;;
65613;SDS011;52283;49.292;10.572;2023-05-07T04:35:39;6.63;;;3.50;;
65613;SDS011;52283;49.292;10.572;2023-05-07T04:38:06;4.10;;;3.13;;
65613;SDS011;52283;49.292;10.572;2023-05-07T04:40:33;5.57;;;3.38;;
65613;SDS011;52283;49.292;10.572;2023-05-07T04:43:01;4.68;;;3.60;;
65613;SDS011;52283;49.292;10.572;2023-05-07T04:45:27;7.20;;;3.78;;
65613;SDS011;52283;49.292;10.572;2023-05-07T04:47:54;5.43;;;3.58;;
65613;SDS011;52283;49.292;10.572;2023-05-07T04:50:22;4.45;;;3.20;;
65613;SDS011;52283;49.292;10.572;2023-05-07T04:52:49;4.13;;;3.72;;
65613;SDS011;52283;49.292;10.572;2023-05-07T04:55:16;4.28;;;3.40;;
65613;SDS011;52283;49.292;10.572;2023-05-07T04:57:42;4.70;;;3.45;;
65613;SDS011;52283;49.292;10.572;2023-05-07T05:00:09;7.88;;;3.95;;
65613;SDS011;52283;49.292;10.572;2023-05-07T05:02:36;3.10;;;2.78;;
65613;SDS011;52283;49.292;10.572;2023-05-07T05:05:03;5.68;;;3.72;;
65613;SDS011;52283;49.292;10.572;2023-05-07T05:07:31;4.22;;;3.83;;
65613;SDS011;52283;49.292;10.572;2023-05-07T05:09:58;4.35;;;3.38;;
65613;SDS011;52283;49.292;10.572;2023-05-07T05:12:24;9.43;;;4.00;;
65613;SDS011;52283;49.292;10.572;2023-05-07T05:14:51;4.10;;;3.60;;
65613;SDS011;52283;49.292;10.572;2023-05-07T05:17:17;5.05;;;4.45;;
65613;SDS011;52283;49.292;10.572;2023-05-07T05:19:44;4.95;;;4.03;;
65613;SDS011;52283;49.292;10.572;2023-05-07T05:22:10;4.22;;;3.90;;
65613;SDS011;52283;49.292;10.572;2023-05-07T05:24:38;6.03;;;4.32;;
65613;SDS011;52283;49.292;10.572;2023-05-07T05:27:04;6.20;;;4.22;;
65613;SDS011;52283;49.292;10.572;2023-05-07T05:29:31;4.15;;;3.70;;
65613;SDS011;52283;49.292;10.572;2023-05-07T05:31:57;6.28;;;3.90;;
65613;SDS011;52283;49.292;10.572;2023-05-07T05:34:24;6.07;;;3.95;;
65613;SDS011;52283;49.292;10.572;2023-05-07T05:36:50;4.45;;;4.00;;
65613;SDS011;52283;49.292;10.572;2023-05-07T05:39:17;4.40;;;4.00;;
65613;SDS011;52283;49.292;10.572;2023-05-07T05:41:45;5.47;;;3.28;;
65613;SDS011;52283;49.292;10.572;2023-05-07T05:44:11;6.18;;;4.55;;
65613;SDS011;52283;49.292;10.572;2023-05-07T05:46:38;6.20;;;4.13;;
65613;SDS011;52283;49.292;10.572;2023-05-07T05:49:05;5.22;;;4.47;;
65613;SDS011;52283;49.292;10.572;2023-05-07T05:51:32;9.68;;;5.20;;
65613;SDS011;52283;49.292;10.572;2023-05-07T05:53:58;5.50;;;4.53;;
65613;SDS011;52283;49.292;10.572;2023-05-07T05:56:24;5.25;;;4.75;;
65613;SDS011;52283;49.292;10.572;2023-05-07T05:58:52;7.15;;;4.32;;
65613;SDS011;52283;49.292;10.572;2023-05-07T06:01:19;4.85;;;4.00;;
65613;SDS011;52283;49.292;10.572;2023-05-07T06:03:45;5.13;;;3.97;;
65613;SDS011;52283;49.292;10.572;2023-05-07T06:06:12;4.63;;;4.22;;
65613;SDS011;52283;49.292;10.572;2023-05-07T06:08:39;8.85;;;4.43;;
65613;SDS011;52283;49.292;10.572;2023-05-07T06:11:06;5.90;;;3.42;;
65613;SDS011;52283;49.292;10.572;2023-05-07T06:13:32;4.65;;;3.60;;
65613;SDS011;52283;49.292;10.572;2023-05-07T06:16:00;5.55;;;4.20;;
65613;SDS011;52283;49.292;10.572;2023-05-07T06:18:27;5.20;;;3.97;;
65613;SDS011;52283;49.292;10.572;2023-05-07T06:20:53;5.10;;;3.88;;
65613;SDS011;52283;49.292;10.572;2023-05-07T06:23:19;6.30;;;4.65;;
65613;SDS011;52283;49.292;10.572;2023-05-07T06:25:48;7.13;;;4.80;;
65613;SDS011;52283;49.292;10.572;2023-05-07T06:28:15;8.02;;;4.78;;
65613;SDS011;52283;49.292;10.572;2023-05-07T06:30:42;8.65;;;5.53;;
65613;SDS011;52283;49.292;10.572;2023-05-07T06:33:09;6.60;;;5.10;;
65613;SDS011;52283;49.292;10.572;2023-05-07T06:35:36;13.45;;;5.50;;
65613;SDS011;52283;49.292;10.572;2023-05-07T06:38:02;8.48;;;5.47;;
65613;SDS011;52283;49.292;10.572;2023-05-07T06:40:29;7.13;;;4.28;;
65613;SDS011;52283;49.292;10.572;2023-05-07T06:42:55;5.20;;;4.60;;
65613;SDS011;52283;49.292;10.572;2023-05-07T06:45:22;7.43;;;5.10;;
65613;SDS011;52283;49.292;10.572;2023-05-07T06:47:48;5.80;;;5.07;;
65613;SDS011;52283;49.292;10.572;2023-05-07T06:50:16;5.30;;;4.80;;
65613;SDS011;52283;49.292;10.572;2023-05-07T06:52:43;7.07;;;5.43;;
65613;SDS011;52283;49.292;10.572;2023-05-07T06:55:10;6.78;;;5.53;;
65613;SDS011;52283;49.292;10.572;2023-05-07T06:57:37;5.88;;;5.38;;
65613;SDS011;52283;49.292;10.572;2023-05-07T07:00:04;7.63;;;5.22;;
65613;SDS011;52283;49.292;10.572;2023-05-07T07:02:33;7.72;;;5.82;;
65613;SDS011;52283;49.292;10.572;2023-05-07T07:05:00;6.50;;;5.80;;
65613;SDS011;52283;49.292;10.572;2023-05-07T07:07:28;10.32;;;6.60;;
65613;SDS011;52283;49.292;10.572;2023-05-07T07:09:55;8.10;;;6.45;;
65613;SDS011;52283;49.292;10.572;2023-05-07T07:12:21;8.02;;;5.63;;
65613;SDS011;52283;49.292;10.572;2023-05-07T07:14:49;9.70;;;6.05;;
65613;SDS011;52283;49.292;10.572;2023-05-07T07:17:16;6.20;;;5.45;;
65613;SDS011;52283;49.292;10.572;2023-05-07T07:19:42;7.32;;;5.88;;
65613;SDS011;52283;49.292;10.572;2023-05-07T07:22:09;6.78;;;5.88;;
65613;SDS011;52283;49.292;10.572;2023-05-07T07:24:37;8.15;;;6.07;;
65613;SDS011;52283;49.292;10.572;2023-05-07T07:27:03;10.82;;;5.82;;
65613;SDS011;52283;49.292;10.572;2023-05-07T07:29:30;7.65;;;5.38;;
65613;SDS011;52283;49.292;10.572;2023-05-07T07:31:56;5.72;;;5.20;;
65613;SDS011;52283;49.292;10.572;2023-05-07T07:34:23;6.72;;;5.45;;
65613;SDS011;52283;49.292;10.572;2023-05-07T07:36:49;8.45;;;6.57;;
65613;SDS011;52283;49.292;10.572;2023-05-07T07:39:16;9.15;;;6.60;;
65613;SDS011;52283;49.292;10.572;2023-05-07T07:41:44;6.35;;;5.75;;
65613;SDS011;52283;49.292;10.572;2023-05-07T07:44:10;7.78;;;6.20;;
65613;SDS011;52283;49.292;10.572;2023-05-07T07:46:38;9.80;;;8.50;;
65613;SDS011;52283;49.292;10.572;2023-05-07T07:49:04;9.30;;;6.38;;
65613;SDS011;52283;49.292;10.572;2023-05-07T07:51:31;6.72;;;6.07;;
65613;SDS011;52283;49.292;10.572;2023-05-07T07:53:57;12.27;;;6.82;;
65613;SDS011;52283;49.292;10.572;2023-05-07T07:56:24;12.23;;;7.22;;
65613;SDS011;52283;49.292;10.572;2023-05-07T07:58:51;8.90;;;6.25;;
65613;SDS011;52283;49.292;10.572;2023-05-07T08:01:18;6.95;;;6.25;;
65613;SDS011;52283;49.292;10.572;2023-05-07T08:03:44;7.68;;;6.72;;
65613;SDS011;52283;49.292;10.572;2023-05-07T08:06:11;9.98;;;6.40;;
65613;SDS011;52283;49.292;10.572;2023-05-07T08:08:37;7.65;;;6.32;;
65613;SDS011;52283;49.292;10.572;2023-05-07T08:11:04;7.95;;;5.72;;
65613;SDS011;52283;49.292;10.572;2023-05-07T08:13:30;7.93;;;6.70;;
65613;SDS011;52283;49.292;10.572;2023-05-07T08:15:58;8.23;;;6.20;;
65613;SDS011;52283;49.292;10.572;2023-05-07T08:18:24;6.95;;;6.25;;
65613;SDS011;52283;49.292;10.572;2023-05-07T08:20:53;14.23;;;6.50;;
65613;SDS011;52283;49.292;10.572;2023-05-07T08:23:19;8.68;;;6.20;;
65613;SDS011;52283;49.292;10.572;2023-05-07T08:25:46;8.18;;;6.55;;
65613;SDS011;52283;49.292;10.572;2023-05-07T08:28:13;7.00;;;6.28;;
65613;SDS011;52283;49.292;10.572;2023-05-07T08:30:39;6.95;;;6.25;;
65613;SDS011;52283;49.292;10.572;2023-05-07T08:33:08;6.15;;;5.57;;
65613;SDS011;52283;49.292;10.572;2023-05-07T08:35:34;7.70;;;5.50;;
65613;SDS011;52283;49.292;10.572;2023-05-07T08:38:01;7.22;;;6.03;;
65613;SDS011;52283;49.292;10.572;2023-05-07T08:40:28;6.00;;;5.50;;
65613;SDS011;52283;49.292;10.572;2023-05-07T08:42:55;6.03;;;5.38;;
65613;SDS011;52283;49.292;10.572;2023-05-07T08:45:23;7.40;;;5.20;;
65613;SDS011;52283;49.292;10.572;2023-05-07T08:47:51;7.22;;;4.45;;
65613;SDS011;52283;49.292;10.572;2023-05-07T08:50:22;5.83;;;5.23;;
65613;SDS011;52283;49.292;10.572;2023-05-07T08:52:48;14.63;;;5.45;;
65613;SDS011;52283;49.292;10.572;2023-05-07T08:55:15;6.80;;;5.78;;
65613;SDS011;52283;49.292;10.572;2023-05-07T08:57:41;8.10;;;5.75;;
65613;SDS011;52283;49.292;10.572;2023-05-07T09:00:08;5.68;;;5.22;;
65613;SDS011;52283;49.292;10.572;2023-05-07T09:02:35;6.53;;;5.53;;
65613;SDS011;52283;49.292;10.572;2023-05-07T09:05:02;9.25;;;6.72;;
65613;SDS011;52283;49.292;10.572;2023-05-07T09:07:30;8.68;;;5.20;;
65613;SDS011;52283;49.292;10.572;2023-05-07T09:09:57;6.22;;;5.63;;
65613;SDS011;52283;49.292;10.572;2023-05-07T09:12:24;8.10;;;6.30;;
65613;SDS011;52283;49.292;10.572;2023-05-07T09:14:50;6.35;;;5.50;;
65613;SDS011;52283;49.292;10.572;2023-05-07T09:17:17;8.63;;;6.53;;
65613;SDS011;52283;49.292;10.572;2023-05-07T09:19:44;6.15;;;5.57;;
65613;SDS011;52283;49.292;10.572;2023-05-07T09:22:11;8.48;;;6.47;;
65613;SDS011;52283;49.292;10.572;2023-05-07T09:24:39;8.23;;;6.15;;
65613;SDS011;52283;49.292;10.572;2023-05-07T09:27:06;6.25;;;4.82;;
65613;SDS011;52283;49.292;10.572;2023-05-07T09:29:35;7.00;;;5.45;;
65613;SDS011;52283;49.292;10.572;2023-05-07T09:32:01;5.88;;;5.13;;
65613;SDS011;52283;49.292;10.572;2023-05-07T09:34:28;6.05;;;5.47;;
65613;SDS011;52283;49.292;10.572;2023-05-07T09:36:55;6.70;;;5.38;;
65613;SDS011;52283;49.292;10.572;2023-05-07T09:39:22;6.70;;;6.10;;
65613;SDS011;52283;49.292;10.572;2023-05-07T09:41:50;7.72;;;5.82;;
65613;SDS011;52283;49.292;10.572;2023-05-07T09:44:19;5.05;;;4.65;;
65613;SDS011;52283;49.292;10.572;2023-05-07T09:46:47;5.75;;;5.25;;
65613;SDS011;52283;49.292;10.572;2023-05-07T09:49:20;5.88;;;5.38;;
65613;SDS011;52283;49.292;10.572;2023-05-07T09:51:49;6.28;;;5.70;;
65613;SDS011;52283;49.292;10.572;2023-05-07T09:54:17;5.60;;;5.10;;
65613;SDS011;52283;49.292;10.572;2023-05-07T09:56:44;6.05;;;5.45;;
65613;SDS011;52283;49.292;10.572;2023-05-07T09:59:13;6.78;;;4.38;;
65613;SDS011;52283;49.292;10.572;2023-05-07T10:01:41;6.22;;;5.18;;
65613;SDS011;52283;49.292;10.572;2023-05-07T10:04:09;5.75;;;5.20;;
65613;SDS011;52283;49.292;10.572;2023-05-07T10:06:37;5.78;;;5.20;;
65613;SDS011;52283;49.292;10.572;2023-05-07T10:09:04;5.35;;;4.85;;
65613;SDS011;52283;49.292;10.572;2023-05-07T10:11:31;5.00;;;4.60;;
65613;SDS011;52283;49.292;10.572;2023-05-07T10:13:58;4.63;;;4.22;;
65613;SDS011;52283;49.292;10.572;2023-05-07T10:16:28;5.25;;;4.30;;
65613;SDS011;52283;49.292;10.572;2023-05-07T10:18:57;4.85;;;4.25;;
65613;SDS011;52283;49.292;10.572;2023-05-07T10:21:24;5.28;;;4.75;;
65613;SDS011;52283;49.292;10.572;2023-05-07T10:23:57;4.57;;;3.40;;
65613;SDS011;52283;49.292;10.572;2023-05-07T10:26:27;4.20;;;3.83;;
65613;SDS011;52283;49.292;10.572;2023-05-07T10:28:56;4.97;;;4.57;;
65613;SDS011;52283;49.292;10.572;2023-05-07T10:31:35;6.68;;;4.88;;
65613;SDS011;52283;49.292;10.572;2023-05-07T10:34:11;4.18;;;3.78;;
65613;SDS011;52283;49.292;10.572;2023-05-07T10:36:41;4.45;;;3.55;;
65613;SDS011;52283;49.292;10.572;2023-05-07T10:39:08;3.28;;;3.08;;
65613;SDS011;52283;49.292;10.572;2023-05-07T10:41:34;3.10;;;2.88;;
65613;SDS011;52283;49.292;10.572;2023-05-07T10:44:01;2.50;;;2.08;;
65613;SDS011;52283;49.292;10.572;2023-05-07T10:46:28;3.58;;;3.38;;
65613;SDS011;52283;49.292;10.572;2023-05-07T10:49:12;3.75;;;3.47;;
65613;SDS011;52283;49.292;10.572;2023-05-07T10:51:39;6.57;;;3.95;;
65613;SDS011;52283;49.292;10.572;2023-05-07T10:54:18;4.45;;;2.80;;
65613;SDS011;52283;49.292;10.572;2023-05-07T10:56:45;3.08;;;2.25;;
65613;SDS011;52283;49.292;10.572;2023-05-07T11:02:06;4.00;;;2.83;;
65613;SDS011;52283;49.292;10.572;2023-05-07T11:04:36;3.17;;;1.55;;
65613;SDS011;52283;49.292;10.572;2023-05-07T11:09:58;2.85;;;1.35;;
65613;SDS011;52283;49.292;10.572;2023-05-07T11:15:33;1.20;;;1.10;;
65613;SDS011;52283;49.292;10.572;2023-05-07T11:26:41;7.65;;;3.15;;
65613;SDS011;52283;49.292;10.572;2023-05-07T11:29:13;1.27;;;1.17;;
65613;SDS011;52283;49.292;10.572;2023-05-07T11:31:40;1.67;;;1.20;;
65613;SDS011;52283;49.292;10.572;2023-05-07T11:34:07;1.00;;;0.70;;
65613;SDS011;52283;49.292;10.572;2023-05-07T11:36:35;1.25;;;1.15;;
65613;SDS011;52283;49.292;10.572;2023-05-07T11:39:22;1.80;;;1.38;;
65613;SDS011;52283;49.292;10.572;2023-05-07T11:41:49;2.22;;;1.00;;
65613;SDS011;52283;49.292;10.572;2023-05-07T11:44:15;2.83;;;1.20;;
65613;SDS011;52283;49.292;10.572;2023-05-07T11:46:42;0.90;;;0.90;;
65613;SDS011;52283;49.292;10.572;2023-05-07T11:49:09;1.35;;;1.08;;
65613;SDS011;52283;49.292;10.572;2023-05-07T11:51:37;1.38;;;1.10;;
65613;SDS011;52283;49.292;10.572;2023-05-07T11:54:05;1.35;;;1.13;;
65613;SDS011;52283;49.292;10.572;2023-05-07T11:56:33;1.58;;;1.08;;
65613;SDS011;52283;49.292;10.572;2023-05-07T11:59:00;1.00;;;0.80;;
65613;SDS011;52283;49.292;10.572;2023-05-07T12:01:27;1.77;;;1.58;;
65613;SDS011;52283;49.292;10.572;2023-05-07T12:03:53;2.13;;;1.77;;
65613;SDS011;52283;49.292;10.572;2023-05-07T12:06:20;1.67;;;1.58;;
65613;SDS011;52283;49.292;10.572;2023-05-07T12:08:48;6.38;;;1.30;;
65613;SDS011;52283;49.292;10.572;2023-05-07T12:11:15;3.60;;;1.10;;
65613;SDS011;52283;49.292;10.572;2023-05-07T12:13:43;1.45;;;1.35;;
65613;SDS011;52283;49.292;10.572;2023-05-07T12:16:10;1.40;;;1.30;;
65613;SDS011;52283;49.292;10.572;2023-05-07T12:18:37;1.10;;;1.00;;
65613;SDS011;52283;49.292;10.572;2023-05-07T12:21:04;3.55;;;0.75;;
65613;SDS011;52283;49.292;10.572;2023-05-07T12:23:32;0.88;;;0.80;;
65613;SDS011;52283;49.292;10.572;2023-05-07T12:26:01;0.55;;;0.55;;
65613;SDS011;52283;49.292;10.572;2023-05-07T12:28:28;1.17;;;0.80;;
65613;SDS011;52283;49.292;10.572;2023-05-07T12:30:55;1.10;;;1.10;;
65613;SDS011;52283;49.292;10.572;2023-05-07T12:33:23;1.23;;;0.95;;
65613;SDS011;52283;49.292;10.572;2023-05-07T12:35:52;1.98;;;1.65;;
65613;SDS011;52283;49.292;10.572;2023-05-07T12:38:20;1.00;;;0.90;;
65613;SDS011;52283;49.292;10.572;2023-05-07T12:40:46;1.15;;;0.77;;
65613;SDS011;52283;49.292;10.572;2023-05-07T12:43:17;1.10;;;1.08;;
65613;SDS011;52283;49.292;10.572;2023-05-07T12:45:45;0.90;;;0.90;;
65613;SDS011;52283;49.292;10.572;2023-05-07T12:48:13;2.03;;;0.80;;
65613;SDS011;52283;49.292;10.572;2023-05-07T12:50:39;1.65;;;0.95;;
65613;SDS011;52283;49.292;10.572;2023-05-07T12:53:06;0.98;;;0.60;;
65613;SDS011;52283;49.292;10.572;2023-05-07T12:55:40;2.85;;;0.95;;
65613;SDS011;52283;49.292;10.572;2023-05-07T12:58:07;0.93;;;0.60;;
65613;SDS011;52283;49.292;10.572;2023-05-07T13:00:36;0.63;;;0.60;;
65613;SDS011;52283;49.292;10.572;2023-05-07T13:03:03;1.15;;;0.70;;
65613;SDS011;52283;49.292;10.572;2023-05-07T13:05:30;0.93;;;0.80;;
65613;SDS011;52283;49.292;10.572;2023-05-07T13:07:57;1.75;;;0.60;;
65613;SDS011;52283;49.292;10.572;2023-05-07T13:10:24;0.68;;;0.50;;
65613;SDS011;52283;49.292;10.572;2023-05-07T13:12:51;0.50;;;0.50;;
65613;SDS011;52283;49.292;10.572;2023-05-07T13:15:18;0.75;;;0.75;;
65613;SDS011;52283;49.292;10.572;2023-05-07T13:17:46;1.00;;;0.73;;
65613;SDS011;52283;49.292;10.572;2023-05-07T13:20:12;2.20;;;0.68;;
65613;SDS011;52283;49.292;10.572;2023-05-07T13:22:40;1.38;;;0.60;;
65613;SDS011;52283;49.292;10.572;2023-05-07T13:25:07;1.02;;;0.60;;
65613;SDS011;52283;49.292;10.572;2023-05-07T13:27:34;0.60;;;0.60;;
65613;SDS011;52283;49.292;10.572;2023-05-07T13:30:02;0.88;;;0.50;;
65613;SDS011;52283;49.292;10.572;2023-05-07T13:32:29;0.90;;;0.82;;
65613;SDS011;52283;49.292;10.572;2023-05-07T13:34:57;0.80;;;0.70;;
65613;SDS011;52283;49.292;10.572;2023-05-07T13:37:24;1.40;;;0.50;;
65613;SDS011;52283;49.292;10.572;2023-05-07T13:39:50;2.50;;;0.60;;
65613;SDS011;52283;49.292;10.572;2023-05-07T13:42:17;1.13;;;0.70;;
65613;SDS011;52283;49.292;10.572;2023-05-07T13:44:43;1.02;;;0.68;;
65613;SDS011;52283;49.292;10.572;2023-05-07T13:47:10;7.25;;;1.02;;
65613;SDS011;52283;49.292;10.572;2023-05-07T13:49:36;2.30;;;0.82;;
65613;SDS011;52283;49.292;10.572;2023-05-07T13:52:04;1.27;;;0.70;;
65613;SDS011;52283;49.292;10.572;2023-05-07T13:54:31;0.50;;;0.50;;
65613;SDS011;52283;49.292;10.572;2023-05-07T13:56:57;0.70;;;0.70;;
65613;SDS011;52283;49.292;10.572;2023-05-07T13:59:24;1.40;;;0.70;;
65613;SDS011;52283;49.292;10.572;2023-05-07T14:01:50;7.53;;;0.70;;
65613;SDS011;52283;49.292;10.572;2023-05-07T14:04:16;0.88;;;0.68;;
65613;SDS011;52283;49.292;10.572;2023-05-07T14:06:43;1.70;;;1.23;;
65613;SDS011;52283;49.292;10.572;2023-05-07T14:09:11;2.95;;;0.70;;
65613;SDS011;52283;49.292;10.572;2023-05-07T14:11:38;1.67;;;0.60;;
65613;SDS011;52283;49.292;10.572;2023-05-07T14:14:04;1.75;;;0.70;;
65613;SDS011;52283;49.292;10.572;2023-05-07T14:16:31;0.40;;;0.40;;
65613;SDS011;52283;49.292;10.572;2023-05-07T14:18:58;0.70;;;0.50;;
65613;SDS011;52283;49.292;10.572;2023-05-07T14:21:24;1.67;;;0.90;;
65613;SDS011;52283;49.292;10.572;2023-05-07T14:23:50;0.63;;;0.60;;
65613;SDS011;52283;49.292;10.572;2023-05-07T14:26:18;0.85;;;0.70;;
65613;SDS011;52283;49.292;10.572;2023-05-07T14:28:45;0.98;;;0.80;;
65613;SDS011;52283;49.292;10.572;2023-05-07T14:31:12;2.53;;;0.60;;
65613;SDS011;52283;49.292;10.572;2023-05-07T14:33:38;1.27;;;0.60;;
65613;SDS011;52283;49.292;10.572;2023-05-07T14:36:05;3.05;;;0.50;;
65613;SDS011;52283;49.292;10.572;2023-05-07T14:38:32;2.03;;;0.50;;
65613;SDS011;52283;49.292;10.572;2023-05-07T14:40:58;1.27;;;0.60;;
65613;SDS011;52283;49.292;10.572;2023-05-07T14:43:27;5.72;;;1.55;;
65613;SDS011;52283;49.292;10.572;2023-05-07T14:45:53;0.95;;;0.60;;
65613;SDS011;52283;49.292;10.572;2023-05-07T14:48:20;0.60;;;0.57;;
65613;SDS011;52283;49.292;10.572;2023-05-07T14:50:46;1.95;;;0.60;;